sensor_id;sensor_type;location;lat;lon;timestamp;P1;durP1;ratioP1;P2;durP2;ratioP2
37411;SDS011;23278;52.110;6.050;2023-03-14T00:01:12;6.03;;;2.55;;
37411;SDS011;23278;52.110;6.050;2023-03-14T00:03:43;6.45;;;1.90;;
37411;SDS011;23278;52.110;6.050;2023-03-14T00:06:10;7.50;;;1.70;;
37411;SDS011;23278;52.110;6.050;2023-03-14T00:08:36;6.60;;;1.58;;
37411;SDS011;23278;52.110;6.050;2023-03-14T00:11:35;6.97;;;1.40;;
37411;SDS011;23278;52.110;6.050;2023-03-14T00:13:55;6.93;;;1.83;;
37411;SDS011;23278;52.110;6.050;2023-03-14T00:16:21;10.77;;;3.13;;
37411;SDS011;23278;52.110;6.050;2023-03-14T00:18:47;3.65;;;1.25;;
37411;SDS011;23278;52.110;6.050;2023-03-14T00:21:13;6.78;;;1.52;;
37411;SDS011;23278;52.110;6.050;2023-03-14T00:23:40;4.03;;;1.38;;
37411;SDS011;23278;52.110;6.050;2023-03-14T00:26:08;6.82;;;2.20;;
37411;SDS011;23278;52.110;6.050;2023-03-14T00:28:36;7.03;;;1.90;;
37411;SDS011;23278;52.110;6.050;2023-03-14T00:31:03;10.90;;;2.80;;
37411;SDS011;23278;52.110;6.050;2023-03-14T00:33:30;7.75;;;1.63;;
37411;SDS011;23278;52.110;6.050;2023-03-14T00:35:58;5.75;;;1.33;;
37411;SDS011;23278;52.110;6.050;2023-03-14T00:38:25;8.85;;;1.50;;
37411;SDS011;23278;52.110;6.050;2023-03-14T00:40:52;5.75;;;1.20;;
37411;SDS011;23278;52.110;6.050;2023-03-14T00:43:19;5.13;;;1.40;;
37411;SDS011;23278;52.110;6.050;2023-03-14T00:45:49;8.38;;;1.60;;
37411;SDS011;23278;52.110;6.050;2023-03-14T00:48:17;6.55;;;1.33;;
37411;SDS011;23278;52.110;6.050;2023-03-14T00:50:44;4.13;;;1.35;;
37411;SDS011;23278;52.110;6.050;2023-03-14T00:53:10;6.97;;;1.67;;
37411;SDS011;23278;52.110;6.050;2023-03-14T00:55:37;5.93;;;1.70;;
37411;SDS011;23278;52.110;6.050;2023-03-14T00:58:04;10.65;;;2.22;;
37411;SDS011;23278;52.110;6.050;2023-03-14T01:00:30;9.43;;;2.08;;
37411;SDS011;23278;52.110;6.050;2023-03-14T01:02:56;9.43;;;2.78;;
37411;SDS011;23278;52.110;6.050;2023-03-14T01:05:23;12.88;;;2.92;;
37411;SDS011;23278;52.110;6.050;2023-03-14T01:07:49;9.85;;;1.75;;
37411;SDS011;23278;52.110;6.050;2023-03-14T01:10:15;5.70;;;1.83;;
37411;SDS011;23278;52.110;6.050;2023-03-14T01:12:41;10.32;;;1.45;;
37411;SDS011;23278;52.110;6.050;2023-03-14T01:15:07;10.68;;;2.70;;
37411;SDS011;23278;52.110;6.050;2023-03-14T01:17:34;9.38;;;2.30;;
37411;SDS011;23278;52.110;6.050;2023-03-14T01:20:00;7.05;;;1.90;;
37411;SDS011;23278;52.110;6.050;2023-03-14T01:22:27;8.85;;;1.83;;
37411;SDS011;23278;52.110;6.050;2023-03-14T01:24:54;9.70;;;1.88;;
37411;SDS011;23278;52.110;6.050;2023-03-14T01:27:19;14.65;;;2.45;;
37411;SDS011;23278;52.110;6.050;2023-03-14T01:29:45;8.02;;;2.20;;
37411;SDS011;23278;52.110;6.050;2023-03-14T01:32:12;7.47;;;1.67;;
37411;SDS011;23278;52.110;6.050;2023-03-14T01:34:38;12.50;;;2.83;;
37411;SDS011;23278;52.110;6.050;2023-03-14T01:37:04;11.25;;;1.58;;
37411;SDS011;23278;52.110;6.050;2023-03-14T01:39:31;9.65;;;1.90;;
37411;SDS011;23278;52.110;6.050;2023-03-14T01:41:57;7.15;;;1.52;;
37411;SDS011;23278;52.110;6.050;2023-03-14T01:44:25;15.50;;;1.85;;
37411;SDS011;23278;52.110;6.050;2023-03-14T01:46:51;6.78;;;1.95;;
37411;SDS011;23278;52.110;6.050;2023-03-14T01:49:26;7.25;;;2.03;;
37411;SDS011;23278;52.110;6.050;2023-03-14T01:52:23;11.40;;;2.25;;
37411;SDS011;23278;52.110;6.050;2023-03-14T01:55:02;10.23;;;2.50;;
37411;SDS011;23278;52.110;6.050;2023-03-14T01:57:34;13.02;;;2.40;;
37411;SDS011;23278;52.110;6.050;2023-03-14T02:00:18;11.00;;;4.20;;
37411;SDS011;23278;52.110;6.050;2023-03-14T02:02:49;14.73;;;2.80;;
37411;SDS011;23278;52.110;6.050;2023-03-14T02:05:20;9.20;;;2.53;;
37411;SDS011;23278;52.110;6.050;2023-03-14T02:07:56;10.68;;;2.85;;
37411;SDS011;23278;52.110;6.050;2023-03-14T02:10:31;14.40;;;3.15;;
37411;SDS011;23278;52.110;6.050;2023-03-14T02:13:02;9.65;;;2.97;;
37411;SDS011;23278;52.110;6.050;2023-03-14T02:15:48;15.07;;;3.08;;
37411;SDS011;23278;52.110;6.050;2023-03-14T02:18:38;10.52;;;3.17;;
37411;SDS011;23278;52.110;6.050;2023-03-14T02:24:41;13.57;;;3.00;;
37411;SDS011;23278;52.110;6.050;2023-03-14T02:27:16;12.20;;;2.97;;
37411;SDS011;23278;52.110;6.050;2023-03-14T02:29:47;12.02;;;3.63;;
37411;SDS011;23278;52.110;6.050;2023-03-14T02:32:19;10.70;;;3.63;;
37411;SDS011;23278;52.110;6.050;2023-03-14T02:34:48;10.27;;;4.68;;
37411;SDS011;23278;52.110;6.050;2023-03-14T02:37:18;13.33;;;4.47;;
37411;SDS011;23278;52.110;6.050;2023-03-14T02:39:46;10.27;;;4.80;;
37411;SDS011;23278;52.110;6.050;2023-03-14T02:42:15;12.68;;;4.63;;
37411;SDS011;23278;52.110;6.050;2023-03-14T02:44:49;15.75;;;5.18;;
37411;SDS011;23278;52.110;6.050;2023-03-14T02:47:26;10.43;;;4.20;;
37411;SDS011;23278;52.110;6.050;2023-03-14T02:49:56;14.00;;;4.95;;
37411;SDS011;23278;52.110;6.050;2023-03-14T02:52:29;8.20;;;3.22;;
37411;SDS011;23278;52.110;6.050;2023-03-14T02:54:55;10.45;;;3.80;;
37411;SDS011;23278;52.110;6.050;2023-03-14T02:57:22;14.63;;;3.83;;
37411;SDS011;23278;52.110;6.050;2023-03-14T02:59:48;12.05;;;4.45;;
37411;SDS011;23278;52.110;6.050;2023-03-14T03:02:17;12.73;;;3.75;;
37411;SDS011;23278;52.110;6.050;2023-03-14T03:04:43;14.10;;;4.25;;
37411;SDS011;23278;52.110;6.050;2023-03-14T03:07:09;9.55;;;3.00;;
37411;SDS011;23278;52.110;6.050;2023-03-14T03:09:36;15.80;;;3.75;;
37411;SDS011;23278;52.110;6.050;2023-03-14T03:12:01;9.05;;;3.55;;
37411;SDS011;23278;52.110;6.050;2023-03-14T03:14:28;13.82;;;3.35;;
37411;SDS011;23278;52.110;6.050;2023-03-14T03:16:58;18.90;;;3.30;;
37411;SDS011;23278;52.110;6.050;2023-03-14T03:19:24;11.95;;;2.88;;
37411;SDS011;23278;52.110;6.050;2023-03-14T03:21:49;8.02;;;2.97;;
37411;SDS011;23278;52.110;6.050;2023-03-14T03:24:15;17.15;;;3.47;;
37411;SDS011;23278;52.110;6.050;2023-03-14T03:26:41;12.65;;;2.10;;
37411;SDS011;23278;52.110;6.050;2023-03-14T03:29:09;11.40;;;3.50;;
37411;SDS011;23278;52.110;6.050;2023-03-14T03:31:36;12.60;;;2.83;;
37411;SDS011;23278;52.110;6.050;2023-03-14T03:34:03;8.65;;;2.35;;
37411;SDS011;23278;52.110;6.050;2023-03-14T03:36:29;8.82;;;2.80;;
37411;SDS011;23278;52.110;6.050;2023-03-14T03:38:57;7.70;;;2.08;;
37411;SDS011;23278;52.110;6.050;2023-03-14T03:41:24;20.77;;;2.92;;
37411;SDS011;23278;52.110;6.050;2023-03-14T03:43:50;17.80;;;3.78;;
37411;SDS011;23278;52.110;6.050;2023-03-14T03:46:16;11.93;;;3.88;;
37411;SDS011;23278;52.110;6.050;2023-03-14T03:48:43;13.15;;;2.33;;
37411;SDS011;23278;52.110;6.050;2023-03-14T03:51:11;17.30;;;3.95;;
37411;SDS011;23278;52.110;6.050;2023-03-14T03:53:39;23.83;;;4.05;;
37411;SDS011;23278;52.110;6.050;2023-03-14T03:56:09;13.13;;;1.83;;
37411;SDS011;23278;52.110;6.050;2023-03-14T03:58:35;11.95;;;2.30;;
37411;SDS011;23278;52.110;6.050;2023-03-14T04:01:04;14.43;;;2.72;;
37411;SDS011;23278;52.110;6.050;2023-03-14T04:03:32;11.15;;;2.92;;
37411;SDS011;23278;52.110;6.050;2023-03-14T04:06:02;14.48;;;2.40;;
37411;SDS011;23278;52.110;6.050;2023-03-14T04:08:32;13.93;;;3.38;;
37411;SDS011;23278;52.110;6.050;2023-03-14T04:10:58;13.40;;;2.25;;
37411;SDS011;23278;52.110;6.050;2023-03-14T04:13:50;14.52;;;2.78;;
37411;SDS011;23278;52.110;6.050;2023-03-14T04:16:17;16.67;;;4.03;;
37411;SDS011;23278;52.110;6.050;2023-03-14T04:18:45;11.73;;;4.45;;
37411;SDS011;23278;52.110;6.050;2023-03-14T04:21:11;18.35;;;3.88;;
37411;SDS011;23278;52.110;6.050;2023-03-14T04:23:46;18.23;;;3.25;;
37411;SDS011;23278;52.110;6.050;2023-03-14T04:26:12;17.73;;;4.82;;
37411;SDS011;23278;52.110;6.050;2023-03-14T04:28:39;13.85;;;3.58;;
37411;SDS011;23278;52.110;6.050;2023-03-14T04:31:17;16.55;;;2.83;;
37411;SDS011;23278;52.110;6.050;2023-03-14T04:33:45;9.82;;;3.38;;
37411;SDS011;23278;52.110;6.050;2023-03-14T04:36:13;16.80;;;4.40;;
37411;SDS011;23278;52.110;6.050;2023-03-14T04:38:40;17.63;;;3.83;;
37411;SDS011;23278;52.110;6.050;2023-03-14T04:41:07;18.38;;;3.55;;
37411;SDS011;23278;52.110;6.050;2023-03-14T04:43:34;20.48;;;3.28;;
37411;SDS011;23278;52.110;6.050;2023-03-14T04:46:06;19.85;;;4.90;;
37411;SDS011;23278;52.110;6.050;2023-03-14T04:48:32;16.80;;;3.80;;
37411;SDS011;23278;52.110;6.050;2023-03-14T04:50:59;10.85;;;2.72;;
37411;SDS011;23278;52.110;6.050;2023-03-14T04:53:28;14.73;;;3.35;;
37411;SDS011;23278;52.110;6.050;2023-03-14T04:55:55;17.27;;;3.65;;
37411;SDS011;23278;52.110;6.050;2023-03-14T04:58:24;10.40;;;3.85;;
37411;SDS011;23278;52.110;6.050;2023-03-14T05:00:52;10.90;;;2.85;;
37411;SDS011;23278;52.110;6.050;2023-03-14T05:03:36;15.75;;;2.97;;
37411;SDS011;23278;52.110;6.050;2023-03-14T05:06:15;12.43;;;3.00;;
37411;SDS011;23278;52.110;6.050;2023-03-14T05:09:20;11.50;;;2.80;;
37411;SDS011;23278;52.110;6.050;2023-03-14T05:12:10;15.52;;;2.13;;
37411;SDS011;23278;52.110;6.050;2023-03-14T05:14:50;15.60;;;2.75;;
37411;SDS011;23278;52.110;6.050;2023-03-14T05:17:36;12.13;;;2.70;;
37411;SDS011;23278;52.110;6.050;2023-03-14T05:20:23;10.77;;;1.92;;
37411;SDS011;23278;52.110;6.050;2023-03-14T05:23:11;9.05;;;2.63;;
37411;SDS011;23278;52.110;6.050;2023-03-14T05:25:56;14.68;;;2.08;;
37411;SDS011;23278;52.110;6.050;2023-03-14T05:28:51;16.70;;;2.50;;
37411;SDS011;23278;52.110;6.050;2023-03-14T05:31:26;12.15;;;2.78;;
37411;SDS011;23278;52.110;6.050;2023-03-14T05:34:12;19.85;;;3.47;;
37411;SDS011;23278;52.110;6.050;2023-03-14T05:36:51;11.52;;;2.53;;
37411;SDS011;23278;52.110;6.050;2023-03-14T05:39:35;8.65;;;2.05;;
37411;SDS011;23278;52.110;6.050;2023-03-14T05:42:19;10.38;;;2.17;;
37411;SDS011;23278;52.110;6.050;2023-03-14T05:44:56;13.88;;;3.30;;
37411;SDS011;23278;52.110;6.050;2023-03-14T05:47:55;11.13;;;2.78;;
37411;SDS011;23278;52.110;6.050;2023-03-14T05:50:47;10.55;;;1.30;;
37411;SDS011;23278;52.110;6.050;2023-03-14T05:53:27;11.15;;;1.90;;
37411;SDS011;23278;52.110;6.050;2023-03-14T05:56:14;5.57;;;1.50;;
37411;SDS011;23278;52.110;6.050;2023-03-14T05:58:59;7.80;;;1.67;;
37411;SDS011;23278;52.110;6.050;2023-03-14T06:01:42;12.15;;;2.58;;
37411;SDS011;23278;52.110;6.050;2023-03-14T06:04:14;8.35;;;1.42;;
37411;SDS011;23278;52.110;6.050;2023-03-14T06:06:40;10.82;;;2.20;;
37411;SDS011;23278;52.110;6.050;2023-03-14T06:09:07;7.63;;;1.45;;
37411;SDS011;23278;52.110;6.050;2023-03-14T06:11:36;11.05;;;2.05;;
37411;SDS011;23278;52.110;6.050;2023-03-14T06:14:04;5.18;;;1.55;;
37411;SDS011;23278;52.110;6.050;2023-03-14T06:16:30;5.53;;;1.42;;
37411;SDS011;23278;52.110;6.050;2023-03-14T06:18:58;12.45;;;2.65;;
37411;SDS011;23278;52.110;6.050;2023-03-14T06:21:24;9.15;;;1.75;;
37411;SDS011;23278;52.110;6.050;2023-03-14T06:23:51;6.60;;;1.73;;
37411;SDS011;23278;52.110;6.050;2023-03-14T06:26:18;4.00;;;1.40;;
37411;SDS011;23278;52.110;6.050;2023-03-14T06:28:44;6.50;;;1.52;;
37411;SDS011;23278;52.110;6.050;2023-03-14T06:31:10;6.88;;;1.48;;
37411;SDS011;23278;52.110;6.050;2023-03-14T06:33:45;5.93;;;1.80;;
37411;SDS011;23278;52.110;6.050;2023-03-14T06:36:11;8.20;;;2.00;;
37411;SDS011;23278;52.110;6.050;2023-03-14T06:38:40;7.88;;;1.95;;
37411;SDS011;23278;52.110;6.050;2023-03-14T06:41:06;7.50;;;1.98;;
37411;SDS011;23278;52.110;6.050;2023-03-14T06:43:37;10.48;;;3.45;;
37411;SDS011;23278;52.110;6.050;2023-03-14T06:46:05;5.88;;;2.65;;
37411;SDS011;23278;52.110;6.050;2023-03-14T06:48:33;6.05;;;2.75;;
37411;SDS011;23278;52.110;6.050;2023-03-14T06:51:00;8.05;;;2.50;;
37411;SDS011;23278;52.110;6.050;2023-03-14T06:53:26;7.07;;;2.83;;
37411;SDS011;23278;52.110;6.050;2023-03-14T06:55:52;8.70;;;3.28;;
37411;SDS011;23278;52.110;6.050;2023-03-14T06:58:19;7.95;;;3.08;;
37411;SDS011;23278;52.110;6.050;2023-03-14T07:00:45;9.40;;;3.28;;
37411;SDS011;23278;52.110;6.050;2023-03-14T07:03:14;15.13;;;4.55;;
37411;SDS011;23278;52.110;6.050;2023-03-14T07:05:44;9.07;;;3.72;;
37411;SDS011;23278;52.110;6.050;2023-03-14T07:08:10;8.98;;;4.00;;
37411;SDS011;23278;52.110;6.050;2023-03-14T07:10:36;14.13;;;5.32;;
37411;SDS011;23278;52.110;6.050;2023-03-14T07:13:02;9.80;;;3.78;;
37411;SDS011;23278;52.110;6.050;2023-03-14T07:15:32;10.15;;;4.03;;
37411;SDS011;23278;52.110;6.050;2023-03-14T07:18:03;10.55;;;4.20;;
37411;SDS011;23278;52.110;6.050;2023-03-14T07:20:29;9.25;;;3.67;;
37411;SDS011;23278;52.110;6.050;2023-03-14T07:22:57;7.22;;;4.60;;
37411;SDS011;23278;52.110;6.050;2023-03-14T07:25:36;10.23;;;4.47;;
37411;SDS011;23278;52.110;6.050;2023-03-14T07:28:02;9.52;;;4.32;;
37411;SDS011;23278;52.110;6.050;2023-03-14T07:30:28;9.25;;;4.22;;
37411;SDS011;23278;52.110;6.050;2023-03-14T07:32:55;7.40;;;3.78;;
37411;SDS011;23278;52.110;6.050;2023-03-14T07:35:23;13.70;;;5.18;;
37411;SDS011;23278;52.110;6.050;2023-03-14T07:37:49;6.90;;;3.72;;
37411;SDS011;23278;52.110;6.050;2023-03-14T07:40:18;8.40;;;3.20;;
37411;SDS011;23278;52.110;6.050;2023-03-14T07:42:44;4.30;;;2.10;;
37411;SDS011;23278;52.110;6.050;2023-03-14T07:45:24;3.80;;;1.67;;
37411;SDS011;23278;52.110;6.050;2023-03-14T07:47:50;4.10;;;1.52;;
37411;SDS011;23278;52.110;6.050;2023-03-14T07:50:16;1.55;;;0.80;;
37411;SDS011;23278;52.110;6.050;2023-03-14T07:52:42;2.20;;;0.63;;
37411;SDS011;23278;52.110;6.050;2023-03-14T07:55:08;2.25;;;0.80;;
37411;SDS011;23278;52.110;6.050;2023-03-14T07:57:34;2.45;;;0.80;;
37411;SDS011;23278;52.110;6.050;2023-03-14T08:00:00;1.80;;;0.60;;
37411;SDS011;23278;52.110;6.050;2023-03-14T08:02:26;2.45;;;0.70;;
37411;SDS011;23278;52.110;6.050;2023-03-14T08:04:52;1.38;;;0.98;;
37411;SDS011;23278;52.110;6.050;2023-03-14T08:07:17;1.77;;;0.50;;
37411;SDS011;23278;52.110;6.050;2023-03-14T08:09:43;0.85;;;0.55;;
37411;SDS011;23278;52.110;6.050;2023-03-14T08:12:09;2.00;;;0.98;;
37411;SDS011;23278;52.110;6.050;2023-03-14T08:14:35;1.27;;;0.60;;
37411;SDS011;23278;52.110;6.050;2023-03-14T08:17:01;2.38;;;0.50;;
37411;SDS011;23278;52.110;6.050;2023-03-14T08:19:27;0.98;;;0.60;;
37411;SDS011;23278;52.110;6.050;2023-03-14T08:21:53;0.73;;;0.40;;
37411;SDS011;23278;52.110;6.050;2023-03-14T08:24:19;0.88;;;0.50;;
37411;SDS011;23278;52.110;6.050;2023-03-14T08:26:45;1.13;;;0.57;;
37411;SDS011;23278;52.110;6.050;2023-03-14T08:29:11;1.30;;;0.60;;
37411;SDS011;23278;52.110;6.050;2023-03-14T08:31:38;1.70;;;0.70;;
37411;SDS011;23278;52.110;6.050;2023-03-14T08:34:03;2.78;;;0.60;;
37411;SDS011;23278;52.110;6.050;2023-03-14T08:36:31;3.63;;;0.70;;
37411;SDS011;23278;52.110;6.050;2023-03-14T08:38:57;5.20;;;1.00;;
37411;SDS011;23278;52.110;6.050;2023-03-14T08:41:23;5.55;;;1.20;;
37411;SDS011;23278;52.110;6.050;2023-03-14T08:43:49;5.75;;;1.30;;
37411;SDS011;23278;52.110;6.050;2023-03-14T08:46:15;3.55;;;0.88;;
37411;SDS011;23278;52.110;6.050;2023-03-14T08:48:41;5.50;;;0.93;;
37411;SDS011;23278;52.110;6.050;2023-03-14T08:51:08;4.85;;;0.90;;
37411;SDS011;23278;52.110;6.050;2023-03-14T08:53:36;4.60;;;0.70;;
37411;SDS011;23278;52.110;6.050;2023-03-14T08:56:02;5.10;;;0.70;;
37411;SDS011;23278;52.110;6.050;2023-03-14T08:58:30;4.80;;;0.90;;
37411;SDS011;23278;52.110;6.050;2023-03-14T09:00:57;4.45;;;0.50;;
37411;SDS011;23278;52.110;6.050;2023-03-14T09:03:23;3.08;;;0.75;;
37411;SDS011;23278;52.110;6.050;2023-03-14T09:05:50;3.40;;;0.85;;
37411;SDS011;23278;52.110;6.050;2023-03-14T09:08:16;15.38;;;2.83;;
37411;SDS011;23278;52.110;6.050;2023-03-14T09:10:42;6.63;;;0.65;;
37411;SDS011;23278;52.110;6.050;2023-03-14T09:13:08;2.90;;;0.50;;
37411;SDS011;23278;52.110;6.050;2023-03-14T09:15:34;3.28;;;0.77;;
37411;SDS011;23278;52.110;6.050;2023-03-14T09:18:00;4.82;;;0.80;;
37411;SDS011;23278;52.110;6.050;2023-03-14T09:20:26;3.88;;;0.70;;
37411;SDS011;23278;52.110;6.050;2023-03-14T09:22:52;8.02;;;1.52;;
37411;SDS011;23278;52.110;6.050;2023-03-14T09:25:18;7.50;;;1.15;;
37411;SDS011;23278;52.110;6.050;2023-03-14T09:27:44;9.13;;;0.70;;
37411;SDS011;23278;52.110;6.050;2023-03-14T09:30:10;7.03;;;2.05;;
37411;SDS011;23278;52.110;6.050;2023-03-14T09:32:36;4.32;;;1.40;;
37411;SDS011;23278;52.110;6.050;2023-03-14T09:35:03;4.15;;;0.55;;
37411;SDS011;23278;52.110;6.050;2023-03-14T09:37:29;10.02;;;0.80;;
37411;SDS011;23278;52.110;6.050;2023-03-14T09:39:55;2.40;;;0.75;;
37411;SDS011;23278;52.110;6.050;2023-03-14T09:42:22;3.28;;;0.60;;
37411;SDS011;23278;52.110;6.050;2023-03-14T09:44:59;4.72;;;1.20;;
37411;SDS011;23278;52.110;6.050;2023-03-14T09:47:31;5.85;;;0.90;;
37411;SDS011;23278;52.110;6.050;2023-03-14T09:49:59;5.38;;;1.20;;
37411;SDS011;23278;52.110;6.050;2023-03-14T09:52:29;4.68;;;0.55;;
37411;SDS011;23278;52.110;6.050;2023-03-14T09:55:00;5.10;;;0.98;;
37411;SDS011;23278;52.110;6.050;2023-03-14T09:57:29;5.47;;;1.35;;
37411;SDS011;23278;52.110;6.050;2023-03-14T09:59:59;8.93;;;0.90;;
37411;SDS011;23278;52.110;6.050;2023-03-14T10:02:39;12.73;;;1.35;;
37411;SDS011;23278;52.110;6.050;2023-03-14T10:05:17;7.97;;;1.08;;
37411;SDS011;23278;52.110;6.050;2023-03-14T10:07:44;6.97;;;0.70;;
37411;SDS011;23278;52.110;6.050;2023-03-14T10:10:16;5.97;;;1.48;;
37411;SDS011;23278;52.110;6.050;2023-03-14T10:12:47;8.15;;;1.23;;
37411;SDS011;23278;52.110;6.050;2023-03-14T10:15:25;8.32;;;1.25;;
37411;SDS011;23278;52.110;6.050;2023-03-14T10:17:58;8.13;;;2.08;;
37411;SDS011;23278;52.110;6.050;2023-03-14T10:23:07;11.82;;;2.05;;
37411;SDS011;23278;52.110;6.050;2023-03-14T10:26:07;4.65;;;0.82;;
37411;SDS011;23278;52.110;6.050;2023-03-14T10:28:43;8.25;;;1.42;;
37411;SDS011;23278;52.110;6.050;2023-03-14T10:31:09;8.35;;;3.10;;
37411;SDS011;23278;52.110;6.050;2023-03-14T10:33:36;13.43;;;2.35;;
37411;SDS011;23278;52.110;6.050;2023-03-14T10:36:04;11.27;;;1.77;;
37411;SDS011;23278;52.110;6.050;2023-03-14T10:38:48;8.48;;;0.90;;
37411;SDS011;23278;52.110;6.050;2023-03-14T10:43:51;12.98;;;1.55;;
37411;SDS011;23278;52.110;6.050;2023-03-14T10:46:19;4.43;;;0.80;;
37411;SDS011;23278;52.110;6.050;2023-03-14T10:49:05;7.10;;;1.35;;
37411;SDS011;23278;52.110;6.050;2023-03-14T10:51:32;5.43;;;1.52;;
37411;SDS011;23278;52.110;6.050;2023-03-14T10:54:12;14.13;;;1.63;;
37411;SDS011;23278;52.110;6.050;2023-03-14T10:56:44;12.88;;;1.92;;
37411;SDS011;23278;52.110;6.050;2023-03-14T10:59:14;16.58;;;1.60;;
37411;SDS011;23278;52.110;6.050;2023-03-14T11:01:48;14.77;;;2.00;;
37411;SDS011;23278;52.110;6.050;2023-03-14T11:07:16;14.73;;;2.83;;
37411;SDS011;23278;52.110;6.050;2023-03-14T11:09:54;18.17;;;2.75;;
37411;SDS011;23278;52.110;6.050;2023-03-14T11:15:25;11.15;;;2.40;;
37411;SDS011;23278;52.110;6.050;2023-03-14T11:17:59;12.02;;;2.85;;
37411;SDS011;23278;52.110;6.050;2023-03-14T11:23:27;18.67;;;3.80;;
37411;SDS011;23278;52.110;6.050;2023-03-14T11:28:38;17.17;;;2.70;;
37411;SDS011;23278;52.110;6.050;2023-03-14T11:31:16;14.65;;;2.33;;
37411;SDS011;23278;52.110;6.050;2023-03-14T11:36:20;18.00;;;2.22;;
37411;SDS011;23278;52.110;6.050;2023-03-14T11:38:51;15.45;;;3.05;;
37411;SDS011;23278;52.110;6.050;2023-03-14T11:41:25;19.50;;;3.58;;
37411;SDS011;23278;52.110;6.050;2023-03-14T11:43:59;21.52;;;2.38;;
37411;SDS011;23278;52.110;6.050;2023-03-14T11:46:36;12.32;;;2.40;;
37411;SDS011;23278;52.110;6.050;2023-03-14T11:51:59;11.70;;;2.13;;
37411;SDS011;23278;52.110;6.050;2023-03-14T11:57:24;12.20;;;2.35;;
37411;SDS011;23278;52.110;6.050;2023-03-14T12:05:39;9.63;;;1.20;;
37411;SDS011;23278;52.110;6.050;2023-03-14T12:08:15;3.80;;;1.10;;
37411;SDS011;23278;52.110;6.050;2023-03-14T12:13:46;11.05;;;2.20;;
37411;SDS011;23278;52.110;6.050;2023-03-14T12:18:50;7.35;;;1.27;;
37411;SDS011;23278;52.110;6.050;2023-03-14T12:21:17;10.30;;;1.23;;
37411;SDS011;23278;52.110;6.050;2023-03-14T12:23:47;5.85;;;0.95;;
37411;SDS011;23278;52.110;6.050;2023-03-14T12:28:52;6.35;;;0.90;;
37411;SDS011;23278;52.110;6.050;2023-03-14T12:39:25;4.15;;;1.05;;
37411;SDS011;23278;52.110;6.050;2023-03-14T12:42:04;7.47;;;1.70;;
37411;SDS011;23278;52.110;6.050;2023-03-14T12:44:39;6.95;;;1.00;;
37411;SDS011;23278;52.110;6.050;2023-03-14T12:49:48;5.90;;;1.60;;
37411;SDS011;23278;52.110;6.050;2023-03-14T12:55:29;3.55;;;0.98;;
37411;SDS011;23278;52.110;6.050;2023-03-14T12:58:17;16.73;;;1.85;;
37411;SDS011;23278;52.110;6.050;2023-03-14T13:00:54;6.32;;;1.10;;
37411;SDS011;23278;52.110;6.050;2023-03-14T13:03:26;4.75;;;1.05;;
37411;SDS011;23278;52.110;6.050;2023-03-14T13:06:09;6.28;;;1.13;;
37411;SDS011;23278;52.110;6.050;2023-03-14T13:08:37;5.57;;;1.10;;
37411;SDS011;23278;52.110;6.050;2023-03-14T13:11:18;5.68;;;0.80;;
37411;SDS011;23278;52.110;6.050;2023-03-14T13:13:49;4.72;;;0.98;;
37411;SDS011;23278;52.110;6.050;2023-03-14T13:16:21;5.18;;;1.13;;
37411;SDS011;23278;52.110;6.050;2023-03-14T13:18:48;5.43;;;0.77;;
37411;SDS011;23278;52.110;6.050;2023-03-14T13:21:17;3.67;;;1.00;;
37411;SDS011;23278;52.110;6.050;2023-03-14T13:23:59;3.78;;;0.88;;
37411;SDS011;23278;52.110;6.050;2023-03-14T13:26:37;3.50;;;1.00;;
37411;SDS011;23278;52.110;6.050;2023-03-14T13:31:46;2.95;;;1.10;;
37411;SDS011;23278;52.110;6.050;2023-03-14T13:34:13;6.75;;;1.80;;
37411;SDS011;23278;52.110;6.050;2023-03-14T13:36:39;4.57;;;1.42;;
37411;SDS011;23278;52.110;6.050;2023-03-14T13:39:17;6.28;;;0.88;;
37411;SDS011;23278;52.110;6.050;2023-03-14T13:41:55;5.88;;;1.00;;
37411;SDS011;23278;52.110;6.050;2023-03-14T13:44:26;4.28;;;0.88;;
37411;SDS011;23278;52.110;6.050;2023-03-14T13:47:00;4.68;;;1.10;;
37411;SDS011;23278;52.110;6.050;2023-03-14T13:49:28;5.22;;;0.93;;
37411;SDS011;23278;52.110;6.050;2023-03-14T13:51:57;3.00;;;0.80;;
37411;SDS011;23278;52.110;6.050;2023-03-14T13:54:25;3.53;;;0.77;;
37411;SDS011;23278;52.110;6.050;2023-03-14T13:56:59;4.90;;;1.08;;
37411;SDS011;23278;52.110;6.050;2023-03-14T13:59:30;5.95;;;1.20;;
37411;SDS011;23278;52.110;6.050;2023-03-14T14:02:02;3.20;;;0.70;;
37411;SDS011;23278;52.110;6.050;2023-03-14T14:04:37;4.90;;;0.77;;
37411;SDS011;23278;52.110;6.050;2023-03-14T14:07:07;6.45;;;1.15;;
37411;SDS011;23278;52.110;6.050;2023-03-14T14:09:41;5.75;;;1.17;;
37411;SDS011;23278;52.110;6.050;2023-03-14T14:17:34;5.93;;;0.70;;
37411;SDS011;23278;52.110;6.050;2023-03-14T14:20:23;8.02;;;1.52;;
37411;SDS011;23278;52.110;6.050;2023-03-14T14:23:32;8.10;;;0.95;;
37411;SDS011;23278;52.110;6.050;2023-03-14T14:25:54;3.33;;;1.10;;
37411;SDS011;23278;52.110;6.050;2023-03-14T14:31:04;5.13;;;1.20;;
37411;SDS011;23278;52.110;6.050;2023-03-14T14:33:37;2.75;;;0.70;;
37411;SDS011;23278;52.110;6.050;2023-03-14T14:36:13;5.85;;;1.02;;
37411;SDS011;23278;52.110;6.050;2023-03-14T14:38:48;6.82;;;1.38;;
37411;SDS011;23278;52.110;6.050;2023-03-14T14:41:35;3.20;;;0.73;;
37411;SDS011;23278;52.110;6.050;2023-03-14T14:44:06;4.32;;;1.08;;
37411;SDS011;23278;52.110;6.050;2023-03-14T14:46:32;3.63;;;0.88;;
37411;SDS011;23278;52.110;6.050;2023-03-14T14:49:05;3.42;;;0.80;;
37411;SDS011;23278;52.110;6.050;2023-03-14T14:51:40;5.05;;;0.85;;
37411;SDS011;23278;52.110;6.050;2023-03-14T14:56:50;6.68;;;1.30;;
37411;SDS011;23278;52.110;6.050;2023-03-14T14:59:20;2.28;;;0.73;;
37411;SDS011;23278;52.110;6.050;2023-03-14T15:01:56;4.13;;;0.70;;
37411;SDS011;23278;52.110;6.050;2023-03-14T15:04:24;6.22;;;1.05;;
37411;SDS011;23278;52.110;6.050;2023-03-14T15:06:51;4.63;;;0.73;;
37411;SDS011;23278;52.110;6.050;2023-03-14T15:09:18;2.33;;;0.70;;
37411;SDS011;23278;52.110;6.050;2023-03-14T15:11:45;4.90;;;0.82;;
37411;SDS011;23278;52.110;6.050;2023-03-14T15:14:12;4.85;;;1.48;;
37411;SDS011;23278;52.110;6.050;2023-03-14T15:16:38;4.03;;;0.50;;
37411;SDS011;23278;52.110;6.050;2023-03-14T15:19:09;9.07;;;1.60;;
37411;SDS011;23278;52.110;6.050;2023-03-14T15:21:45;5.07;;;1.30;;
37411;SDS011;23278;52.110;6.050;2023-03-14T15:24:11;2.75;;;0.90;;
37411;SDS011;23278;52.110;6.050;2023-03-14T15:26:37;3.88;;;0.90;;
37411;SDS011;23278;52.110;6.050;2023-03-14T15:29:03;5.35;;;1.00;;
37411;SDS011;23278;52.110;6.050;2023-03-14T15:31:33;4.00;;;1.27;;
37411;SDS011;23278;52.110;6.050;2023-03-14T15:34:01;2.67;;;0.90;;
37411;SDS011;23278;52.110;6.050;2023-03-14T15:36:28;8.88;;;0.95;;
37411;SDS011;23278;52.110;6.050;2023-03-14T15:38:59;3.45;;;0.88;;
37411;SDS011;23278;52.110;6.050;2023-03-14T15:41:25;4.28;;;0.70;;
37411;SDS011;23278;52.110;6.050;2023-03-14T15:43:52;3.78;;;0.88;;
37411;SDS011;23278;52.110;6.050;2023-03-14T15:46:19;4.30;;;0.70;;
37411;SDS011;23278;52.110;6.050;2023-03-14T15:48:47;6.40;;;0.70;;
37411;SDS011;23278;52.110;6.050;2023-03-14T15:51:14;3.47;;;1.15;;
37411;SDS011;23278;52.110;6.050;2023-03-14T15:53:40;3.45;;;0.70;;
37411;SDS011;23278;52.110;6.050;2023-03-14T15:56:12;4.60;;;1.20;;
37411;SDS011;23278;52.110;6.050;2023-03-14T15:58:43;3.30;;;0.77;;
37411;SDS011;23278;52.110;6.050;2023-03-14T16:01:12;4.60;;;0.75;;
37411;SDS011;23278;52.110;6.050;2023-03-14T16:03:39;3.70;;;0.60;;
37411;SDS011;23278;52.110;6.050;2023-03-14T16:06:05;4.70;;;0.80;;
37411;SDS011;23278;52.110;6.050;2023-03-14T16:08:31;5.03;;;0.98;;
37411;SDS011;23278;52.110;6.050;2023-03-14T16:10:58;7.25;;;1.90;;
37411;SDS011;23278;52.110;6.050;2023-03-14T16:13:24;8.43;;;1.48;;